< Cyclone 197315 1985 Season Cyclone 198507 >
Cyclone 198506 (GERTIE)
General InformationDetailed Track InformationTrack Information on Google MapsList of All Images || ResourceGoogle EarthGE AnimationAtom FeedGeoJSON
Detalied Best Track Wind (Time Zone = UTC)
Year Month Day Hour Lat. Long. Wind (kt) Gust (kt) Direc. of Major Storm Axis Radius of Major Storm Axis (nm) Radius of Minor Storm Axis (nm) Direc. of Major Gale Axis Radius of Major Gale Axis (nm) Radius of Minor Gale Axis (nm) Image
1985 1 26 00 -16.0 126.0 0 -1 symmetric - - symmetric - - Image
1985 1 26 03 -16.1 125.9 0 -1 symmetric - - symmetric - - Image
1985 1 26 06 -16.3 125.9 0 -1 symmetric - - symmetric - - Image
1985 1 26 09 -16.4 125.8 0 -1 symmetric - - symmetric - - Image
1985 1 26 12 -16.5 125.7 0 -1 symmetric - - symmetric - - Image
1985 1 26 16 -16.5 125.5 0 -1 symmetric - - symmetric - - Image
1985 1 26 18 -16.6 125.4 0 -1 symmetric - - symmetric - - Image
1985 1 26 21 -16.6 125.2 0 -1 symmetric - - symmetric - - Image
1985 1 27 00 -16.7 125.0 0 -1 symmetric - - symmetric - - Image
1985 1 27 03 -16.8 124.8 0 -1 symmetric - - symmetric - - Image
1985 1 27 06 -16.8 124.6 0 -1 symmetric - - symmetric - - Image
1985 1 27 09 -16.9 124.4 0 -1 symmetric - - symmetric - - Image
1985 1 27 12 -16.9 124.2 0 -1 symmetric - - symmetric - - Image
1985 1 27 16 -17.0 123.9 0 -1 symmetric - - symmetric - - Image
1985 1 27 18 -17.0 123.8 0 -1 symmetric - - symmetric - - Image
1985 1 27 21 -17.1 123.5 0 -1 symmetric - - symmetric - - Image
1985 1 28 00 -17.4 123.2 0 -1 symmetric - - symmetric - - Image
1985 1 28 03 -17.6 123.0 0 -1 symmetric - - symmetric - - Image
1985 1 28 06 -17.7 122.6 0 -1 symmetric - - symmetric - - Image
1985 1 28 09 -17.8 122.2 0 -1 symmetric - - symmetric - - Image
1985 1 28 12 -17.9 121.9 0 -1 symmetric - - symmetric - - Image
1985 1 28 16 -18.1 121.3 0 -1 symmetric - - symmetric - - Image
1985 1 28 18 -18.2 121.1 0 -1 symmetric - - symmetric - - Image
1985 1 28 21 -18.2 120.8 0 -1 symmetric - - symmetric - - Image
1985 1 29 00 -18.3 120.4 0 -1 symmetric - - symmetric - - Image
1985 1 29 03 -18.3 120.0 0 -1 symmetric - - symmetric - - Image
1985 1 29 06 -18.3 119.7 35 -1 symmetric - - symmetric - - Image
1985 1 29 09 -18.3 119.4 35 -1 symmetric - - symmetric - - Image
1985 1 29 12 -18.3 119.1 39 -1 symmetric - - symmetric - - Image
1985 1 29 16 -18.2 118.7 47 -1 symmetric - - symmetric - - Image
1985 1 29 18 -18.2 118.5 49 -1 symmetric - - symmetric - - Image
1985 1 29 21 -18.1 118.2 53 -1 symmetric - - symmetric - - Image
1985 1 30 00 -18.0 117.9 54 -1 symmetric - - symmetric - - Image
1985 1 30 03 -18.1 117.7 56 -1 symmetric - - symmetric - - Image
1985 1 30 06 -18.2 117.4 58 -1 symmetric - - symmetric - - Image
1985 1 30 09 -18.4 117.3 60 -1 symmetric - - symmetric - - Image
1985 1 30 12 -18.7 117.3 64 -1 symmetric - - symmetric - - Image
1985 1 30 16 -19.1 117.3 66 -1 symmetric - - symmetric - - Image
1985 1 30 18 -19.4 117.2 68 -1 symmetric - - symmetric - - Image
1985 1 30 21 -19.9 117.1 70 -1 symmetric - - symmetric - - Image
1985 1 31 00 -20.4 117.0 68 -1 symmetric - - symmetric - - Image
1985 1 31 03 -20.9 117.0 66 -1 symmetric - - symmetric - - Image
1985 1 31 06 -21.4 116.9 68 -1 symmetric - - symmetric - - Image
1985 1 31 09 -21.9 117.0 60 -1 symmetric - - symmetric - - Image
1985 1 31 12 -22.4 117.2 56 -1 symmetric - - symmetric - - Image
1985 1 31 16 -23.2 117.5 51.5 -1 symmetric - - symmetric - - Image
1985 1 31 18 -23.7 117.7 47 -1 symmetric - - symmetric - - Image
1985 1 31 21 -24.4 117.8 39 -1 symmetric - - symmetric - - Image
1985 2 1 00 -25.1 117.8 37 -1 symmetric - - symmetric - - Image
1985 2 1 03 -25.8 118.0 35 -1 symmetric - - symmetric - - Image
1985 2 1 06 -26.4 118.4 35 -1 symmetric - - symmetric - - Image
1985 2 1 09 -26.7 119.0 0 -1 symmetric - - symmetric - - Image
1985 2 1 12 -26.8 119.4 0 -1 symmetric - - symmetric - - Image
1985 2 1 16 -26.8 120.0 0 -1 symmetric - - symmetric - - Image
1985 2 1 18 -26.9 120.0 0 -1 symmetric - - symmetric - - Image
1985 2 1 21 -26.9 120.7 0 -1 symmetric - - symmetric - - Image
1985 2 2 00 -26.9 121.2 0 -1 symmetric - - symmetric - - Image
1985 2 2 03 -26.9 121.7 0 -1 symmetric - - symmetric - - Image
1985 2 2 06 -26.9 122.1 0 -1 symmetric - - symmetric - - Image
1985 2 2 09 -26.9 122.5 0 -1 symmetric - - symmetric - - Image
1985 2 2 12 -26.9 122.8 0 -1 symmetric - - symmetric - - Image
1985 2 2 16 -26.9 123.1 0 -1 symmetric - - symmetric - - Image
1985 2 2 18 -26.9 123.2 0 -1 symmetric - - symmetric - - Image
1985 2 2 21 -26.8 123.5 0 -1 symmetric - - symmetric - - Image
1985 2 3 00 -26.8 123.9 0 -1 symmetric - - symmetric - - Image
< Cyclone 197315 1985 Season Cyclone 198507 >

Help